x

Destruction Island, Wa (desw1) Weather Station

12:00 - Mon 27th Apr 2015 All times are PDT. -7 hours from GMT.

  • Wind
    13mph, 15mph gusts
  • Ar Temp 56°f
  • Sea Pressure 1021.8mb
  • Destruction Island, Wa
  • Destruction Island, Wa

More Historic Weather Station data

Upgrade to MSW Pro to gain access to the past 30 days of data for over 8000 Wavebouys and Weather Stations around the globe.

Join Pro

Comparision Forecast

View Surf forecast
   
Seg 04/27 12:00 13 15 mph 1021.8mb 56f
11:00 15
mph
1022.4mb 54f
10:00 16 18 mph 1023.1mb 53f
9:00 22 23 mph 1023.4mb 53f
8:00 23 24 mph 1023.2mb 52f
7:00 21 22 mph 1023.1mb 52f
6:00 22 25 mph 1022.9mb 52f
5:00 24 26 mph 1022.8mb 52f
4:00 25 30 mph 1022.9mb 52f
3:00 22 24 mph 1022.8mb 51f
2:00 21 23 mph 1023mb 51f
1:00 25 26 mph 1022.8mb 52f
12:00 24 26 mph 1022.6mb 52f
Dom 04/26 11:00 23 25 mph 1022.7mb 51f
10:00 26 29 mph 1022.6mb 52f
9:00 26 31 mph 1022.2mb 52f
8:00 26 29 mph 1021.4mb 51f
7:00 24 28 mph 1021.8mb 51f
6:00 28 30 mph 1022mb 51f
5:00 30 33 mph 1022.2mb 51f
4:00 26 28 mph 1022.2mb 51f
3:00 25 29 mph 1022mb 51f
2:00 31 33 mph 1022mb 51f
1:00 30 32 mph 1022.2mb 50f
12:00 26 29 mph 1022.1mb 49f
11:00 26 32 mph 1021.8mb 49f
10:00 17 20 mph 1021.8mb 49f
9:00 18 20 mph 1020.8mb 49f
8:00 17 20 mph 1020.2mb 47f
7:00 16 17 mph 1020mb 47f
6:00 17 18 mph 1019.6mb 47f
5:00 15 16 mph 1019.5mb 47f
4:00 14
mph
1019.1mb 47f
3:00 13
mph
1019.1mb 46f
2:00 8
mph
1019.1mb 45f
1:00 7 8 mph 1018.9mb 45f
12:00 8 9 mph 1018.9mb 46f
Sáb 04/25 11:00 6 7 mph 1018.6mb 47f
10:00 5 6 mph 1018.2mb 49f
9:00 3 5 mph 1018.3mb 49f
8:00 7
mph
1018.2mb 50f
7:00 7
mph
1017.7mb 50f
6:00 7 8 mph 1017.5mb 52f
5:00 8 10 mph 1017.3mb 51f
4:00 8 10 mph 1017.4mb 53f
3:00 11
mph
1017.2mb 52f
2:00 11 13 mph 1016.8mb 52f
1:00 8
mph
1016.6mb 50f
12:00 11 13 mph 1016.2mb 50f
11:00 8
mph
1016.1mb 49f
10:00 2 3 mph 1015.5mb 48f
9:00 2 3 mph 1015.2mb 47f
8:00 6 7 mph 1014.8mb 43f
7:00 3 6 mph 1014.5mb 43f
6:00 5 7 mph 1013.7mb 45f
5:00 6 8 mph 1013.6mb 44f
4:00 5 6 mph 1013.5mb 43f
3:00 7
mph
1013.1mb 43f
2:00 8 9 mph 1013mb 43f
1:00 9 10 mph 1012.8mb 43f
12:00 3
mph
1012.4mb 45f
Sex 04/24 11:00 5 6 mph 1012.5mb 46f
10:00 8 9 mph 1012.1mb 48f
9:00 8
mph
1011.8mb 48f
8:00 9 11 mph 1011.5mb 48f
7:00 13
mph
1011.3mb 49f
6:00 9 10 mph 1011.1mb 49f
5:00 10 11 mph 1010.7mb 50f
4:00 11 14 mph 1010.5mb 50f
3:00 11 13 mph 1010.2mb 51f
2:00 10 11 mph 1009.8mb 51f
1:00 17 20 mph 1009.3mb 50f
12:00 14 15 mph 1009.4mb 49f
11:00 16 18 mph 1008.8mb 49f
10:00 15 16 mph 1008.3mb 48f
9:00 16 20 mph 1007.9mb 48f
8:00 6 15 mph 1007.6mb 44f
7:00 20 21 mph 1006.7mb 45f
6:00 15 17 mph 1006.7mb 45f
5:00 20 21 mph 1006.4mb 44f
4:00 15 17 mph 1006.9mb 44f
3:00 11 13 mph 1006.6mb 45f
2:00 6 7 mph 1006.9mb 44f
1:00 20 21 mph 1007.1mb 46f
12:00 25 29 mph 1006.9mb 45f
Qui 04/23 11:00 18 21 mph 1007.2mb 45f
10:00 21 22 mph 1007.8mb 46f
9:00 17 21 mph 1008.1mb 47f